Hauptseite
METAR-TAF:

METAR-TAF

Flughäfen :

Iguaçu, Argentinien

Breite: 25-44S, Länge: 054-28W, Höhe: 270 m

Beobachtung

Neuester Wetterbericht von vor 33 Minuten, um 19:00 UTC
Wind 4 kt aus Nord
Temperatur 29°C
Luftfeuchtigkeit 45%
Luftdruck 1012 hPa
Sichtweite 10 km oder mehr
Leicht bewölkt in der Höhe von 3000 ft

METAR: SARI 211900Z 36004KT 9999 FEW030 29/16 Q1012

Zeit: 16:33 (19:33 UTC)

Prognose

Neuester Wetterbericht von vor 2 Stunden und 33 Minuten, um 17:00 UTC
Gültige Prognose vom 21 um 18 UTC bis 22 um 18 UTC
Wind 10 kt aus Nord/Nordost
Sichtweite 10 km oder mehr
keine Wolken unter 1500 m und keine Kumulonimbus oder Gewitterwolken
Wahrscheinlichkeit 40%
vom 22 um 07 UTC bis 22 um 11 UTC
Sichtweite: 5000 m
feuchter Dunst

TAF: SARI 211700Z 2118/2218 02010KT CAVOK TX30/2218Z TN18/2109Z PROB40 2207/2211 5000 BR

Wetterbeobachtungen und Prognosen von mehr als 4000 Flughäfen (METAR und TAF Bericht).

Die verfügbaren Stationen werden durch gelbe und rote Markierungen auf der Karte dargestellt.

Führen Sie die Maus auf sie, um den Namen der Station zu sehen.

Darauf klicken, um die Beobachtung von Wetterbeobachtungen und Prognosen zu sehen.

Um die Karte zu ändern : klicken Sie auf den grünen Tasten mit einem schwarzen Kreuz Zum Vergrößern, auf den grünen Button mit einem Gedankenstrich zu verkleinern, oder auf die grünen Pfeile für benachbarte Karten.


METAR-TAF: